Time;durP1;ratioP1;P1;durP2;ratioP2;P2;SDS_P1;SDS_P2;PMS_P1;PMS_P2;Temp;Humidity;BMP_temperature;BMP_pressure;BME280_temperature;BME280_humidity;BME280_pressure;Samples;Min_cycle;Max_cycle;Signal;HPM_P1;HPM_P2
2023/06/11 00:03:33;;;;;;;11.45;5.65;;;;;;;;;;10310430;28;20081;-62
2023/06/11 00:08:31;;;;;;;;;;;;;;;;;;10309247;28;20056;-63
2023/06/11 00:13:31;;;;;;;7.47;6.78;;;;;;;;;;10308111;28;19960;-63
2023/06/11 00:18:29;;;;;;;9.00;6.05;;;;;;;;;;10308168;28;20529;-62
2023/06/11 00:23:27;;;;;;;6.85;6.15;;;;;;;;;;10306433;28;20079;-62
2023/06/11 00:28:25;;;;;;;7.00;5.60;;;;;;;;;;10311487;28;20084;-63
2023/06/11 00:33:25;;;;;;;8.88;5.82;;;;;;;;;;10304232;28;20103;-62
2023/06/11 00:38:23;;;;;;;10.10;5.82;;;;;;;;;;10309731;28;20068;-62
2023/06/11 00:43:23;;;;;;;8.82;6.40;;;;;;;;;;10307346;28;20076;-61
2023/06/11 00:48:21;;;;;;;11.10;7.10;;;;;;;;;;10307919;28;20063;-62
2023/06/11 00:53:22;;;;;;;11.02;6.38;;;;;;;;;;10307201;28;20060;-62
2023/06/11 00:58:21;;;;;;;7.00;6.03;;;;;;;;;;10314310;28;20721;-62
2023/06/11 01:03:21;;;;;;;8.07;6.10;;;;;;;;;;10315344;28;20076;-62
2023/06/11 01:08:22;;;;;;;8.25;6.28;;;;;;;;;;10314223;28;20063;-62
2023/06/11 01:13:23;;;;;;;10.45;6.63;;;;;;;;;;10328280;28;20077;-62
2023/06/11 01:18:23;;;;;;;12.20;6.32;;;;;;;;;;10313696;28;20087;-63
2023/06/11 01:23:25;;;;;;;9.82;6.72;;;;;;;;;;10312886;28;20073;-62
2023/06/11 01:28:28;;;;;;;7.80;6.82;;;;;;;;;;10316133;28;20076;-62
2023/06/11 01:33:27;;;;;;;10.43;6.00;;;;;;;;;;10310517;28;20068;-62
2023/06/11 01:38:30;;;;;;;11.73;7.03;;;;;;;;;;10314530;28;20486;-62
2023/06/11 01:43:30;;;;;;;9.90;6.05;;;;;;;;;;10328144;28;20079;-62
2023/06/11 01:48:28;;;;;;;8.38;6.60;;;;;;;;;;10310891;28;20064;-63
2023/06/11 01:53:26;;;;;;;7.50;6.07;;;;;;;;;;10309739;28;20064;-62
2023/06/11 01:58:25;;;;;;;7.70;6.50;;;;;;;;;;10311576;28;20040;-61
2023/06/11 02:03:25;;;;;;;8.65;6.55;;;;;;;;;;10311722;28;20080;-62
2023/06/11 02:08:23;;;;;;;9.50;5.78;;;;;;;;;;10304496;28;20072;-63
2023/06/11 02:13:25;;;;;;;10.73;5.93;;;;;;;;;;10312251;28;20075;-61
2023/06/11 02:18:28;;;;;;;7.40;6.55;;;;;;;;;;10313192;28;20522;-61
2023/06/11 02:23:26;;;;;;;7.05;5.70;;;;;;;;;;10307709;28;20489;-62
2023/06/11 02:28:25;;;;;;;7.40;5.40;;;;;;;;;;10313293;28;20068;-62
2023/06/11 02:33:25;;;;;;;7.10;5.47;;;;;;;;;;10308636;28;20067;-62
2023/06/11 02:38:25;;;;;;;7.40;5.60;;;;;;;;;;10312898;28;20449;-62
2023/06/11 02:43:23;;;;;;;8.82;6.32;;;;;;;;;;10325520;28;20090;-62
2023/06/11 02:48:21;;;;;;;8.05;5.85;;;;;;;;;;10310923;28;20064;-62
2023/06/11 02:53:19;;;;;;;8.02;5.50;;;;;;;;;;10310555;28;20497;-63
2023/06/11 02:58:20;;;;;;;12.90;6.85;;;;;;;;;;10310382;28;20068;-62
2023/06/11 03:03:18;;;;;;;6.85;5.95;;;;;;;;;;10308742;28;20103;-62
2023/06/11 03:08:18;;;;;;;13.82;5.82;;;;;;;;;;10308876;28;20147;-62
2023/06/11 03:13:17;;;;;;;10.82;6.35;;;;;;;;;;10302722;28;20545;-62
2023/06/11 03:18:19;;;;;;;10.35;6.47;;;;;;;;;;10308802;28;20052;-62
2023/06/11 03:23:18;;;;;;;9.55;6.95;;;;;;;;;;10307060;28;20080;-63
2023/06/11 03:28:18;;;;;;;11.50;6.60;;;;;;;;;;10308617;28;20486;-62
2023/06/11 03:33:17;;;;;;;7.80;6.07;;;;;;;;;;10308519;28;20079;-63
2023/06/11 03:38:16;;;;;;;9.18;5.88;;;;;;;;;;10311352;28;20084;-62
2023/06/11 03:43:15;;;;;;;8.65;5.72;;;;;;;;;;10300492;28;20067;-61
2023/06/11 03:48:15;;;;;;;10.88;5.55;;;;;;;;;;10310304;28;20098;-63
2023/06/11 03:53:14;;;;;;;7.32;6.25;;;;;;;;;;10307093;28;20068;-62
2023/06/11 03:58:14;;;;;;;8.82;6.57;;;;;;;;;;10309565;28;20072;-63
2023/06/11 04:03:13;;;;;;;8.20;6.80;;;;;;;;;;10307017;28;20080;-63
2023/06/11 04:08:12;;;;;;;12.52;8.13;;;;;;;;;;10309395;28;20079;-60
2023/06/11 04:13:12;;;;;;;13.18;7.88;;;;;;;;;;10300994;28;20459;-61
2023/06/11 04:18:12;;;;;;;12.05;7.78;;;;;;;;;;10309524;28;20075;-62
2023/06/11 04:23:11;;;;;;;8.75;7.72;;;;;;;;;;10308327;28;20072;-62
2023/06/11 04:28:10;;;;;;;9.88;8.70;;;;;;;;;;10310771;28;20486;-61
2023/06/11 04:33:08;;;;;;;11.95;8.32;;;;;;;;;;10311617;28;20540;-62
2023/06/11 04:38:10;;;;;;;14.02;8.18;;;;;;;;;;10316541;28;20076;-61
2023/06/11 04:43:10;;;;;;;9.23;8.33;;;;;;;;;;10313317;28;20056;-62
2023/06/11 04:48:09;;;;;;;10.60;8.82;;;;;;;;;;10315609;28;20075;-61
2023/06/11 04:53:12;;;;;;;11.68;8.90;;;;;;;;;;10313196;28;20071;-62
2023/06/11 04:58:12;;;;;;;12.40;9.10;;;;;;;;;;10307383;28;20087;-61
2023/06/11 05:03:12;;;;;;;15.85;8.68;;;;;;;;;;10311812;28;20080;-62
2023/06/11 05:08:12;;;;;;;14.48;9.13;;;;;;;;;;10308807;28;20466;-62
2023/06/11 05:13:11;;;;;;;13.98;8.57;;;;;;;;;;10312077;28;20071;-62
2023/06/11 05:18:09;;;;;;;11.85;9.07;;;;;;;;;;10309361;28;20076;-60
2023/06/11 05:23:08;;;;;;;13.45;9.02;;;;;;;;;;10310467;28;20544;-61
2023/06/11 05:28:08;;;;;;;10.20;9.20;;;;;;;;;;10312952;28;20076;-63
2023/06/11 05:33:08;;;;;;;10.77;8.48;;;;;;;;;;10305892;28;20076;-62
2023/06/11 05:38:07;;;;;;;11.40;8.43;;;;;;;;;;10309446;28;20533;-62
2023/06/11 05:43:08;;;;;;;9.70;8.27;;;;;;;;;;10305328;28;20087;-62
2023/06/11 05:48:07;;;;;;;8.77;7.88;;;;;;;;;;10295952;28;20076;-62
2023/06/11 05:53:09;;;;;;;10.90;7.45;;;;;;;;;;10310230;28;20080;-62
2023/06/11 05:58:11;;;;;;;9.88;8.50;;;;;;;;;;10283909;28;20083;-61
2023/06/11 06:03:10;;;;;;;9.60;7.90;;;;;;;;;;10305181;28;20087;-62
2023/06/11 06:08:10;;;;;;;13.23;8.77;;;;;;;;;;10306979;28;20346;-61
2023/06/11 06:13:08;;;;;;;14.18;9.52;;;;;;;;;;10302014;28;20084;-62
2023/06/11 06:18:08;;;;;;;12.27;9.18;;;;;;;;;;10321009;28;20048;-61
2023/06/11 06:23:10;;;;;;;13.90;8.93;;;;;;;;;;10321278;28;20099;-61
2023/06/11 06:28:11;;;;;;;9.60;8.60;;;;;;;;;;10323188;28;20080;-62
2023/06/11 06:33:12;;;;;;;8.75;7.82;;;;;;;;;;10307300;28;20087;-63
2023/06/11 06:38:11;;;;;;;12.00;7.90;;;;;;;;;;10303966;28;20083;-63
2023/06/11 06:43:12;;;;;;;11.43;9.02;;;;;;;;;;10306434;28;20083;-63
2023/06/11 06:48:14;;;;;;;16.50;8.68;;;;;;;;;;10307469;28;20178;-62
2023/06/11 06:53:14;;;;;;;11.02;8.13;;;;;;;;;;10327014;28;20537;-61
2023/06/11 06:58:13;;;;;;;18.60;9.80;;;;;;;;;;10305952;28;20040;-62
2023/06/11 07:03:14;;;;;;;11.55;8.50;;;;;;;;;;10313398;28;20080;-62
2023/06/11 07:08:13;;;;;;;12.35;7.93;;;;;;;;;;10313269;28;20083;-62
2023/06/11 07:13:14;;;;;;;8.85;7.32;;;;;;;;;;10313129;28;20489;-62
2023/06/11 07:18:16;;;;;;;11.40;8.35;;;;;;;;;;10313101;28;20082;-62
2023/06/11 07:23:14;;;;;;;12.38;7.28;;;;;;;;;;10312206;28;20060;-62
2023/06/11 07:28:12;;;;;;;14.18;8.55;;;;;;;;;;10313429;28;20109;-62
2023/06/11 07:33:10;;;;;;;11.20;8.48;;;;;;;;;;10310318;28;20483;-62
2023/06/11 07:38:10;;;;;;;11.65;7.78;;;;;;;;;;10311043;28;20076;-62
2023/06/11 07:43:12;;;;;;;10.48;7.55;;;;;;;;;;10311889;28;20064;-62
2023/06/11 07:48:10;;;;;;;12.50;7.70;;;;;;;;;;10311707;28;20105;-62
2023/06/11 07:53:09;;;;;;;12.30;7.25;;;;;;;;;;10312022;28;20521;-62
2023/06/11 07:58:09;;;;;;;10.52;6.60;;;;;;;;;;10311440;28;20079;-62
2023/06/11 08:03:08;;;;;;;11.93;5.95;;;;;;;;;;10316818;28;20080;-63
2023/06/11 08:08:07;;;;;;;10.32;7.13;;;;;;;;;;10319703;28;20095;-62
2023/06/11 08:13:06;;;;;;;8.85;6.43;;;;;;;;;;10321214;28;20119;-62
2023/06/11 08:18:06;;;;;;;10.13;5.93;;;;;;;;;;10320996;28;20628;-62
2023/06/11 08:23:04;;;;;;;10.68;6.70;;;;;;;;;;10320353;28;20072;-62
2023/06/11 08:28:02;;;;;;;10.50;5.88;;;;;;;;;;10320498;28;20068;-62
2023/06/11 08:33:01;;;;;;;12.13;8.52;;;;;;;;;;10318695;28;20065;-62
2023/06/11 08:38:00;;;;;;;11.25;5.72;;;;;;;;;;10319723;28;20710;-62
2023/06/11 08:42:58;;;;;;;7.32;5.05;;;;;;;;;;10307986;28;20122;-62
2023/06/11 08:47:57;;;;;;;9.35;5.68;;;;;;;;;;10305271;28;20478;-62
2023/06/11 08:52:56;;;;;;;13.00;5.80;;;;;;;;;;10314612;28;20079;-62
2023/06/11 08:57:56;;;;;;;12.10;5.95;;;;;;;;;;10316500;28;20605;-62
2023/06/11 09:02:54;;;;;;;10.13;5.25;;;;;;;;;;10319264;28;20087;-62
2023/06/11 09:07:53;;;;;;;14.32;5.30;;;;;;;;;;10316352;28;20068;-63
2023/06/11 09:12:51;;;;;;;7.80;5.18;;;;;;;;;;10316794;28;20072;-63
2023/06/11 09:17:54;;;;;;;18.45;5.40;;;;;;;;;;10316928;28;20079;-62
2023/06/11 09:22:54;;;;;;;16.45;6.15;;;;;;;;;;10318228;28;20075;-62
2023/06/11 09:27:52;;;;;;;9.63;4.97;;;;;;;;;;10318534;28;20500;-62
2023/06/11 09:32:51;;;;;;;8.45;5.82;;;;;;;;;;10317727;28;20090;-63
2023/06/11 09:37:52;;;;;;;12.98;5.90;;;;;;;;;;10313306;28;20067;-62
2023/06/11 09:42:50;;;;;;;11.68;6.18;;;;;;;;;;10305235;28;20080;-63
2023/06/11 09:47:50;;;;;;;11.45;5.45;;;;;;;;;;10308653;28;20072;-62
2023/06/11 09:52:51;;;;;;;9.80;4.80;;;;;;;;;;10313036;28;20075;-63
2023/06/11 09:57:50;;;;;;;13.73;5.63;;;;;;;;;;10304404;28;20076;-63
2023/06/11 10:02:48;;;;;;;11.52;4.88;;;;;;;;;;10305807;28;20088;-63
2023/06/11 10:07:48;;;;;;;13.25;4.75;;;;;;;;;;10316623;28;20071;-63
2023/06/11 10:12:50;;;;;;;9.07;4.68;;;;;;;;;;10315403;28;20489;-62
2023/06/11 10:17:55;;;;;;;12.77;5.50;;;;;;;;;;10309732;28;20584;-63
2023/06/11 10:23:02;;;;;;;7.82;4.90;;;;;;;;;;10305185;28;20074;-64
2023/06/11 10:28:06;;;;;;;9.23;4.93;;;;;;;;;;10307295;28;20072;-63
2023/06/11 10:33:04;;;;;;;6.28;4.95;;;;;;;;;;10304040;28;20073;-61
2023/06/11 10:38:04;;;;;;;12.65;4.90;;;;;;;;;;10310707;28;20065;-63
2023/06/11 10:43:04;;;;;;;5.65;4.22;;;;;;;;;;10304461;28;20072;-63
2023/06/11 10:48:04;;;;;;;13.35;4.75;;;;;;;;;;10302923;28;20072;-63
2023/06/11 10:53:06;;;;;;;10.85;4.35;;;;;;;;;;10296785;28;20069;-63
2023/06/11 10:58:04;;;;;;;7.70;3.60;;;;;;;;;;10296699;28;20082;-63
2023/06/11 11:03:04;;;;;;;5.32;3.78;;;;;;;;;;10303605;28;20080;-62
2023/06/11 11:08:03;;;;;;;5.50;3.20;;;;;;;;;;10312610;28;20068;-62
2023/06/11 11:13:01;;;;;;;5.35;3.28;;;;;;;;;;10310980;28;20497;-63
2023/06/11 11:17:59;;;;;;;7.40;3.60;;;;;;;;;;10309052;28;20072;-63
2023/06/11 11:22:59;;;;;;;9.27;3.70;;;;;;;;;;10303678;28;20074;-63
2023/06/11 11:27:57;;;;;;;4.28;3.55;;;;;;;;;;10303717;28;20067;-62
2023/06/11 11:32:56;;;;;;;9.20;4.65;;;;;;;;;;10301839;28;20067;-63
2023/06/11 11:37:55;;;;;;;11.77;4.43;;;;;;;;;;10301123;28;20471;-63
2023/06/11 11:42:56;;;;;;;5.28;3.47;;;;;;;;;;10308779;28;20072;-62
2023/06/11 11:47:54;;;;;;;12.35;4.38;;;;;;;;;;10309556;28;20077;-63
2023/06/11 11:53:03;;;;;;;11.55;4.25;;;;;;;;;;10311010;28;20067;-64
2023/06/11 11:58:09;;;;;;;13.00;4.72;;;;;;;;;;10307869;28;20091;-64
2023/06/11 12:03:08;;;;;;;9.65;3.70;;;;;;;;;;10311351;28;20076;-62
2023/06/11 12:08:07;;;;;;;14.00;4.85;;;;;;;;;;10309971;28;20068;-63
2023/06/11 12:13:07;;;;;;;4.88;3.65;;;;;;;;;;10313013;28;20051;-63
2023/06/11 12:18:06;;;;;;;53.33;9.10;;;;;;;;;;10306616;28;20083;-62
2023/06/11 12:23:05;;;;;;;8.43;3.95;;;;;;;;;;10312340;28;20080;-63
2023/06/11 12:28:03;;;;;;;4.32;2.55;;;;;;;;;;10310848;28;20072;-62
2023/06/11 12:33:01;;;;;;;9.65;3.47;;;;;;;;;;10311959;28;20069;-62
2023/06/11 12:38:01;;;;;;;13.38;3.78;;;;;;;;;;10298091;28;20095;-64
2023/06/11 12:43:00;;;;;;;14.02;3.35;;;;;;;;;;10305206;28;20060;-65
2023/06/11 12:48:00;;;;;;;11.35;3.60;;;;;;;;;;10296705;28;20079;-63
2023/06/11 12:52:59;;;;;;;7.85;4.40;;;;;;;;;;10306344;28;20060;-63
2023/06/11 12:57:58;;;;;;;15.32;5.18;;;;;;;;;;10308556;28;20068;-62
2023/06/11 13:02:57;;;;;;;5.32;4.00;;;;;;;;;;10305803;28;20077;-62
2023/06/11 13:07:55;;;;;;;9.38;3.95;;;;;;;;;;10312799;28;20068;-64
2023/06/11 13:12:56;;;;;;;6.40;3.42;;;;;;;;;;10325330;28;20080;-62
2023/06/11 13:17:57;;;;;;;8.85;3.88;;;;;;;;;;10317865;28;20068;-63
2023/06/11 13:22:55;;;;;;;13.85;4.32;;;;;;;;;;10312618;28;20084;-64
2023/06/11 13:27:53;;;;;;;10.48;3.67;;;;;;;;;;10304369;28;20480;-63
2023/06/11 13:32:51;;;;;;;9.70;3.35;;;;;;;;;;10301330;28;20540;-62
2023/06/11 13:37:51;;;;;;;9.40;3.58;;;;;;;;;;10309529;28;20083;-62
2023/06/11 13:42:49;;;;;;;9.90;3.83;;;;;;;;;;10311166;28;20833;-61
2023/06/11 13:47:48;;;;;;;14.43;2.97;;;;;;;;;;10299701;28;20524;-61
2023/06/11 13:52:46;;;;;;;6.38;3.35;;;;;;;;;;10295205;28;20083;-61
2023/06/11 13:57:46;;;;;;;11.18;3.55;;;;;;;;;;10301795;28;20083;-62
2023/06/11 14:02:44;;;;;;;9.95;3.25;;;;;;;;;;10305163;28;20072;-62
2023/06/11 14:07:43;;;;;;;11.93;3.75;;;;;;;;;;10303537;28;20084;-62
2023/06/11 14:12:41;;;;;;;7.45;4.25;;;;;;;;;;10305138;28;20064;-60
2023/06/11 14:17:42;;;;;;;4.65;3.25;;;;;;;;;;10297027;28;20513;-60
2023/06/11 14:22:41;;;;;;;7.80;3.50;;;;;;;;;;10296814;28;20067;-61
2023/06/11 14:27:39;;;;;;;13.55;5.57;;;;;;;;;;10306658;28;20466;-61
2023/06/11 14:32:37;;;;;;;11.15;3.92;;;;;;;;;;10302472;28;20064;-61
2023/06/11 14:37:50;;;;;;;10.48;4.43;;;;;;;;;;10306808;28;20099;-62
2023/06/11 14:42:53;;;;;;;10.57;4.60;;;;;;;;;;10310441;28;20064;-62
2023/06/11 14:47:51;;;;;;;12.20;4.60;;;;;;;;;;10307798;28;20073;-61
2023/06/11 14:52:50;;;;;;;7.45;3.70;;;;;;;;;;10302737;28;20068;-61
2023/06/11 14:57:48;;;;;;;6.13;3.80;;;;;;;;;;10304036;28;20524;-61
2023/06/11 15:02:48;;;;;;;16.83;4.90;;;;;;;;;;10299084;28;20087;-61
2023/06/11 15:07:46;;;;;;;10.48;4.75;;;;;;;;;;10307569;28;20068;-60
2023/06/11 15:12:44;;;;;;;9.10;3.40;;;;;;;;;;10297645;28;20087;-61
2023/06/11 15:17:43;;;;;;;9.60;4.20;;;;;;;;;;10305806;28;20079;-61
2023/06/11 15:22:42;;;;;;;6.30;3.63;;;;;;;;;;10310112;28;20075;-60
2023/06/11 15:27:41;;;;;;;18.38;4.10;;;;;;;;;;10294285;28;20098;-60
2023/06/11 15:32:40;;;;;;;12.00;5.53;;;;;;;;;;10303734;28;20079;-60
2023/06/11 15:37:38;;;;;;;10.90;4.65;;;;;;;;;;10303768;28;20087;-60
2023/06/11 15:42:38;;;;;;;20.58;8.38;;;;;;;;;;10308369;28;20525;-60
2023/06/11 15:47:37;;;;;;;30.85;12.43;;;;;;;;;;10308484;28;20071;-60
2023/06/11 15:52:35;;;;;;;16.25;5.60;;;;;;;;;;10305682;28;20067;-60
2023/06/11 15:57:34;;;;;;;8.15;6.30;;;;;;;;;;10295023;28;20076;-61
2023/06/11 16:02:37;;;;;;;15.80;5.82;;;;;;;;;;10294612;28;20079;-60
2023/06/11 16:07:37;;;;;;;23.80;16.07;;;;;;;;;;10300199;28;20056;-60
2023/06/11 16:12:35;;;;;;;9.90;5.78;;;;;;;;;;10302245;28;20330;-60
2023/06/11 16:17:38;;;;;;;14.30;4.25;;;;;;;;;;10290641;28;20076;-61
2023/06/11 16:22:36;;;;;;;13.55;7.55;;;;;;;;;;10306899;28;20621;-61
2023/06/11 16:27:34;;;;;;;27.92;11.60;;;;;;;;;;10304797;28;20068;-60
2023/06/11 16:32:33;;;;;;;18.13;12.15;;;;;;;;;;10308734;28;20072;-61
2023/06/11 16:37:32;;;;;;;19.27;7.10;;;;;;;;;;10285790;28;20129;-62
2023/06/11 16:42:31;;;;;;;15.13;9.02;;;;;;;;;;10310511;28;20071;-59
2023/06/11 16:47:31;;;;;;;12.27;7.28;;;;;;;;;;10309176;28;20091;-59
2023/06/11 16:52:31;;;;;;;12.52;5.70;;;;;;;;;;10306714;28;20064;-61
2023/06/11 16:57:31;;;;;;;15.80;10.45;;;;;;;;;;10312429;28;20068;-60
2023/06/11 17:02:31;;;;;;;12.85;3.53;;;;;;;;;;10303662;28;20095;-59
2023/06/11 17:07:30;;;;;;;8.32;5.15;;;;;;;;;;10311146;28;20072;-61
2023/06/11 17:12:28;;;;;;;10.13;5.03;;;;;;;;;;10308200;28;20082;-61
2023/06/11 17:17:28;;;;;;;12.98;6.25;;;;;;;;;;10300710;28;20460;-60
2023/06/11 17:22:28;;;;;;;14.90;11.00;;;;;;;;;;10310800;28;20110;-60
2023/06/11 17:27:27;;;;;;;18.23;7.13;;;;;;;;;;10311083;28;20071;-60
2023/06/11 17:32:25;;;;;;;35.92;24.88;;;;;;;;;;10312946;28;20083;-60
2023/06/11 17:37:27;;;;;;;13.60;8.73;;;;;;;;;;10311838;28;20074;-59
2023/06/11 17:42:28;;;;;;;16.75;8.90;;;;;;;;;;10310427;28;20071;-60
2023/06/11 17:47:27;;;;;;;12.85;6.05;;;;;;;;;;10302390;28;21894;-61
2023/06/11 17:52:26;;;;;;;7.70;4.38;;;;;;;;;;10303500;28;20080;-61
2023/06/11 17:57:25;;;;;;;5.47;4.00;;;;;;;;;;10313614;28;20520;-61
2023/06/11 18:02:23;;;;;;;7.85;3.17;;;;;;;;;;10302476;28;20502;-61
2023/06/11 18:07:21;;;;;;;5.45;3.63;;;;;;;;;;10295131;28;20533;-61
2023/06/11 18:12:21;;;;;;;7.22;4.20;;;;;;;;;;10297886;28;20068;-59
2023/06/11 18:17:20;;;;;;;4.70;3.53;;;;;;;;;;10303816;28;20075;-60
2023/06/11 18:22:23;;;;;;;7.30;3.65;;;;;;;;;;10309818;28;20080;-60
2023/06/11 18:27:23;;;;;;;7.40;3.60;;;;;;;;;;10302182;28;20092;-59
2023/06/11 18:32:21;;;;;;;4.43;3.30;;;;;;;;;;10303979;28;20068;-59
2023/06/11 18:37:20;;;;;;;6.13;2.85;;;;;;;;;;10305393;28;20076;-60
2023/06/11 18:42:18;;;;;;;6.05;3.20;;;;;;;;;;10308733;28;20064;-59
2023/06/11 18:47:18;;;;;;;7.97;4.13;;;;;;;;;;10289146;28;20067;-59
2023/06/11 18:52:17;;;;;;;4.47;3.42;;;;;;;;;;10301983;28;20098;-62
2023/06/11 18:57:18;;;;;;;15.82;4.55;;;;;;;;;;10307077;28;20134;-59
2023/06/11 19:02:17;;;;;;;5.97;3.55;;;;;;;;;;10300247;28;20103;-60
2023/06/11 19:07:16;;;;;;;9.48;3.15;;;;;;;;;;10308023;28;20087;-61
2023/06/11 19:12:14;;;;;;;5.72;3.08;;;;;;;;;;10299361;28;20072;-61
2023/06/11 19:17:12;;;;;;;4.47;2.85;;;;;;;;;;10303455;28;20064;-60
2023/06/11 19:22:12;;;;;;;7.03;2.60;;;;;;;;;;10309121;28;20518;-61
2023/06/11 19:27:10;;;;;;;4.55;2.60;;;;;;;;;;10300826;28;20072;-58
2023/06/11 19:32:09;;;;;;;5.03;2.88;;;;;;;;;;10303740;28;20087;-58
2023/06/11 19:37:08;;;;;;;5.43;3.53;;;;;;;;;;10294981;28;20082;-59
2023/06/11 19:42:08;;;;;;;8.93;3.35;;;;;;;;;;10305481;28;20525;-59
2023/06/11 19:47:07;;;;;;;4.82;3.45;;;;;;;;;;10303930;28;20064;-59
2023/06/11 19:52:07;;;;;;;7.13;3.72;;;;;;;;;;10302614;28;20075;-59
2023/06/11 19:57:06;;;;;;;11.27;3.50;;;;;;;;;;10305459;28;20505;-61
2023/06/11 20:02:06;;;;;;;5.05;3.13;;;;;;;;;;10312686;28;20076;-61
2023/06/11 20:07:05;;;;;;;9.82;2.67;;;;;;;;;;10321851;28;20079;-61
2023/06/11 20:12:06;;;;;;;2.90;2.60;;;;;;;;;;10322083;28;20080;-61
2023/06/11 20:17:06;;;;;;;5.10;3.25;;;;;;;;;;10325365;28;20068;-61
2023/06/11 20:22:05;;;;;;;4.10;3.38;;;;;;;;;;10314809;28;20109;-60
2023/06/11 20:27:03;;;;;;;8.52;2.88;;;;;;;;;;10323687;28;20075;-61
2023/06/11 20:32:01;;;;;;;3.45;2.75;;;;;;;;;;10319283;28;20067;-60
2023/06/11 20:37:01;;;;;;;4.55;2.88;;;;;;;;;;10324646;28;20086;-60
2023/06/11 20:41:59;;;;;;;6.82;3.03;;;;;;;;;;10319171;28;20454;-61
2023/06/11 20:46:58;;;;;;;4.63;2.88;;;;;;;;;;10319631;28;20534;-62
2023/06/11 20:51:56;;;;;;;4.60;2.80;;;;;;;;;;10320030;28;20087;-61
2023/06/11 20:56:55;;;;;;;3.60;2.45;;;;;;;;;;10315155;28;20501;-61
2023/06/11 21:01:54;;;;;;;5.47;3.28;;;;;;;;;;10317906;28;20099;-61
2023/06/11 21:06:52;;;;;;;10.30;3.72;;;;;;;;;;10320104;28;20493;-61
2023/06/11 21:11:54;;;;;;;8.80;3.97;;;;;;;;;;10316346;28;20111;-61
2023/06/11 21:16:55;;;;;;;19.08;4.65;;;;;;;;;;10311747;28;20077;-61
2023/06/11 21:21:54;;;;;;;11.98;5.60;;;;;;;;;;10314366;28;20080;-61
2023/06/11 21:26:52;;;;;;;9.05;5.38;;;;;;;;;;10309273;28;20068;-61
2023/06/11 21:31:51;;;;;;;10.55;5.57;;;;;;;;;;10313065;28;20464;-61
2023/06/11 21:36:50;;;;;;;8.95;5.43;;;;;;;;;;10311823;28;20099;-61
2023/06/11 21:41:49;;;;;;;9.73;5.63;;;;;;;;;;10311484;28;20087;-61
2023/06/11 21:46:50;;;;;;;9.73;5.95;;;;;;;;;;10311678;28;20056;-61
2023/06/11 21:51:48;;;;;;;8.80;6.72;;;;;;;;;;10315124;28;20068;-61
2023/06/11 21:56:48;;;;;;;12.18;7.15;;;;;;;;;;10311796;28;20119;-61
2023/06/11 22:01:46;;;;;;;11.00;7.45;;;;;;;;;;10315731;28;20087;-61
2023/06/11 22:06:44;;;;;;;8.40;7.53;;;;;;;;;;10311140;28;20735;-62
2023/06/11 22:11:43;;;;;;;10.93;6.78;;;;;;;;;;10312829;28;20090;-60
2023/06/11 22:16:45;;;;;;;8.93;5.68;;;;;;;;;;10311754;28;20075;-60
2023/06/11 22:21:43;;;;;;;9.18;5.90;;;;;;;;;;10310734;28;20514;-61
2023/06/11 22:26:43;;;;;;;9.20;5.38;;;;;;;;;;10306648;28;20515;-61
2023/06/11 22:31:43;;;;;;;7.82;5.18;;;;;;;;;;10313269;28;20084;-60
2023/06/11 22:36:41;;;;;;;8.23;5.43;;;;;;;;;;10309041;28;20067;-61
2023/06/11 22:41:39;;;;;;;7.95;4.60;;;;;;;;;;10312494;28;20071;-61
2023/06/11 22:46:37;;;;;;;7.30;5.20;;;;;;;;;;10308531;28;20522;-60
2023/06/11 22:51:37;;;;;;;7.85;4.40;;;;;;;;;;10313832;28;20536;-60
2023/06/11 22:56:35;;;;;;;7.57;5.10;;;;;;;;;;10309148;28;20458;-60
2023/06/11 23:01:35;;;;;;;6.53;5.07;;;;;;;;;;10305600;28;20080;-60
2023/06/11 23:06:34;;;;;;;7.82;5.35;;;;;;;;;;10307852;28;20068;-60
2023/06/11 23:11:33;;;;;;;11.55;5.45;;;;;;;;;;10308221;28;20087;-61
2023/06/11 23:16:32;;;;;;;10.45;5.80;;;;;;;;;;10307635;28;20060;-60
2023/06/11 23:21:30;;;;;;;8.48;5.70;;;;;;;;;;10311130;28;20079;-60
2023/06/11 23:26:28;;;;;;;13.13;5.85;;;;;;;;;;10303760;28;20083;-60
2023/06/11 23:31:30;;;;;;;12.32;5.50;;;;;;;;;;10311962;28;20076;-61
2023/06/11 23:36:29;;;;;;;12.60;4.95;;;;;;;;;;10308274;28;20083;-61
2023/06/11 23:41:28;;;;;;;6.35;4.90;;;;;;;;;;10308712;28;20079;-60
2023/06/11 23:46:27;;;;;;;9.23;5.68;;;;;;;;;;10309271;28;20505;-61
2023/06/11 23:51:26;;;;;;;8.30;4.93;;;;;;;;;;10309359;28;20510;-61
2023/06/11 23:56:25;;;;;;;5.82;4.70;;;;;;;;;;10308566;28;20072;-60
